Wetterdaten: Woche 20.11.06 - 26.11.06 (KW47)
Datum Zeit Temperatur Luftfeuchte Luftdruck Niederschlag Wind Richtung Sonnenschein UV-Strahlung Solar Taupunkt Windchill Windben
20.11.2006 00:00 6.2 C 94 % 1024.2 hPa 0.0 l/m 1.7 km/h (1 Bft) S 0.00 h 0.0 UV-I 0 W/m 5.2 C 6.1 C 4.3 km/h (1 Bft)
20.11.2006 01:00 6.1 C 94 % 1024.0 hPa 0.0 l/m 3.8 km/h (1 Bft) W 0.00 h 0.0 UV-I 0 W/m 5.3 C 5.6 C 6.8 km/h (2 Bft)
20.11.2006 02:00 6.3 C 93 % 1023.9 hPa 0.0 l/m 3.2 km/h (1 Bft) W-SW 0.00 h 0.0 UV-I 0 W/m 5.2 C 6.0 C 6.6 km/h (2 Bft)
20.11.2006 03:00 6.1 C 93 % 1024.0 hPa 0.2 l/m 3.1 km/h (1 Bft) W-SW 0.00 h 0.0 UV-I 0 W/m 5.1 C 5.9 C 6.1 km/h (2 Bft)
20.11.2006 04:00 6.1 C 92 % 1023.4 hPa 0.0 l/m 1.3 km/h (1 Bft) O-SO 0.00 h 0.0 UV-I 0 W/m 4.9 C 6.0 C 3.0 km/h (1 Bft)
20.11.2006 05:00 5.9 C 91 % 1023.3 hPa 0.0 l/m 0.9 km/h (0 Bft) S-SO 0.00 h 0.0 UV-I 0 W/m 4.6 C 5.9 C 2.6 km/h (1 Bft)
20.11.2006 06:00 5.2 C 93 % 1022.9 hPa 0.0 l/m 1.3 km/h (1 Bft) SO 0.00 h 0.0 UV-I 0 W/m 4.1 C 5.2 C 2.6 km/h (1 Bft)
20.11.2006 07:00 4.8 C 95 % 1023.0 hPa 0.0 l/m 2.8 km/h (1 Bft) O-SO 0.00 h 0.0 UV-I 9 W/m 4.1 C 4.7 C 4.4 km/h (1 Bft)
20.11.2006 08:00 4.9 C 95 % 1023.1 hPa 0.0 l/m 0.6 km/h (0 Bft) O 0.00 h 0.0 UV-I 30 W/m 4.2 C 4.9 C 1.9 km/h (1 Bft)
20.11.2006 09:00 5.7 C 94 % 1023.0 hPa 0.0 l/m 0.4 km/h (0 Bft) O 0.00 h 0.6 UV-I 68 W/m 4.8 C 5.7 C 1.1 km/h (1 Bft)
20.11.2006 10:00 6.3 C 92 % 1023.0 hPa 0.0 l/m 0.6 km/h (0 Bft) S-SW 0.03 h 0.9 UV-I 100 W/m 5.0 C 6.3 C 2.1 km/h (1 Bft)
20.11.2006 11:00 7.7 C 85 % 1022.4 hPa 0.0 l/m 1.7 km/h (1 Bft) W-SW 0.48 h 1.1 UV-I 234 W/m 5.2 C 7.6 C 4.0 km/h (1 Bft)
20.11.2006 12:00 8.7 C 76 % 1021.3 hPa 0.0 l/m 3.9 km/h (1 Bft) SW 0.98 h 1.3 UV-I 310 W/m 4.7 C 8.5 C 8.0 km/h (2 Bft)
20.11.2006 13:00 8.8 C 74 % 1020.5 hPa 0.0 l/m 4.1 km/h (1 Bft) W-SW 1.00 h 1.2 UV-I 282 W/m 4.4 C 8.5 C 8.4 km/h (2 Bft)
20.11.2006 14:00 8.8 C 72 % 1019.5 hPa 0.0 l/m 3.6 km/h (1 Bft) S-SW 0.98 h 0.8 UV-I 196 W/m 4.1 C 8.6 C 7.5 km/h (2 Bft)
20.11.2006 15:00 8.4 C 72 % 1018.6 hPa 0.0 l/m 2.1 km/h (1 Bft) S 0.35 h 0.5 UV-I 88 W/m 3.7 C 8.3 C 5.1 km/h (1 Bft)
20.11.2006 16:00 7.3 C 75 % 1017.9 hPa 0.0 l/m 3.3 km/h (1 Bft) S-SO 0.00 h 0.0 UV-I 22 W/m 3.2 C 7.1 C 6.1 km/h (2 Bft)
20.11.2006 17:00 6.4 C 79 % 1017.6 hPa 0.0 l/m 5.8 km/h (1 Bft) S-SO 0.00 h 0.0 UV-I 0 W/m 3.1 C 5.5 C 9.1 km/h (2 Bft)
20.11.2006 18:00 6.0 C 83 % 1017.2 hPa 0.0 l/m 1.8 km/h (1 Bft) S-SO 0.00 h 0.0 UV-I 0 W/m 3.3 C 5.9 C 4.7 km/h (1 Bft)
20.11.2006 19:00 6.0 C 84 % 1016.8 hPa 0.0 l/m 1.7 km/h (1 Bft) W-SW 0.00 h 0.0 UV-I 0 W/m 3.5 C 6.0 C 4.5 km/h (1 Bft)
20.11.2006 20:00 6.0 C 85 % 1016.0 hPa 0.0 l/m 1.7 km/h (1 Bft) W-SW 0.00 h 0.0 UV-I 0 W/m 3.7 C 5.9 C 4.5 km/h (1 Bft)
20.11.2006 21:00 6.2 C 83 % 1015.2 hPa 0.0 l/m 3.1 km/h (1 Bft) S 0.00 h 0.0 UV-I 0 W/m 3.6 C 5.9 C 7.0 km/h (2 Bft)
20.11.2006 22:00 6.5 C 80 % 1014.2 hPa 0.0 l/m 4.7 km/h (1 Bft) S 0.00 h 0.0 UV-I 0 W/m 3.3 C 5.9 C 10.1 km/h (2 Bft)
20.11.2006 23:00 6.8 C 78 % 1013.2 hPa 0.0 l/m 4.5 km/h (1 Bft) S 0.00 h 0.0 UV-I 0 W/m 3.2 C 6.4 C 9.2 km/h (2 Bft)
21.11.2006 00:00 6.7 C 80 % 1012.5 hPa 0.2 l/m 5.1 km/h (1 Bft) S-SO 0.00 h 0.0 UV-I 0 W/m 3.5 C 6.0 C 10.0 km/h (2 Bft)
21.11.2006 01:00 6.5 C 82 % 1011.5 hPa 0.0 l/m 3.8 km/h (1 Bft) S-SO 0.00 h 0.0 UV-I 0 W/m 3.7 C 6.1 C 8.6 km/h (2 Bft)
21.11.2006 02:00 6.7 C 78 % 1010.4 hPa 0.0 l/m 4.5 km/h (1 Bft) S-SO 0.00 h 0.0 UV-I 0 W/m 3.2 C 6.2 C 9.5 km/h (2 Bft)
21.11.2006 03:00 6.8 C 78 % 1009.3 hPa 0.0 l/m 3.2 km/h (1 Bft) S 0.00 h 0.0 UV-I 0 W/m 3.2 C 6.6 C 7.3 km/h (2 Bft)
21.11.2006 04:00 6.5 C 82 % 1008.4 hPa 0.0 l/m 4.6 km/h (1 Bft) S-SW 0.00 h 0.0 UV-I 0 W/m 3.6 C 5.9 C 9.7 km/h (2 Bft)
21.11.2006 05:00 6.7 C 84 % 1007.5 hPa 0.6 l/m 4.2 km/h (1 Bft) S 0.00 h 0.0 UV-I 0 W/m 4.1 C 6.1 C 8.6 km/h (2 Bft)
21.11.2006 06:00 5.6 C 96 % 1007.2 hPa 1.4 l/m 0.2 km/h (0 Bft) N 0.00 h 0.0 UV-I 0 W/m 5.0 C 5.6 C 1.1 km/h (0 Bft)
21.11.2006 07:00 6.2 C 97 % 1006.7 hPa 1.2 l/m 3.8 km/h (1 Bft) S-SO 0.00 h 0.0 UV-I 0 W/m 5.7 C 5.6 C 7.9 km/h (2 Bft)
21.11.2006 08:00 6.9 C 95 % 1006.7 hPa 0.2 l/m 2.6 km/h (1 Bft) S-SW 0.00 h 0.0 UV-I 15 W/m 6.2 C 6.7 C 6.7 km/h (2 Bft)
21.11.2006 09:00 7.5 C 95 % 1006.4 hPa 0.0 l/m 3.1 km/h (1 Bft) S-SW 0.02 h 0.6 UV-I 64 W/m 6.7 C 7.3 C 6.9 km/h (2 Bft)
21.11.2006 10:00 8.1 C 93 % 1005.8 hPa 0.2 l/m 3.5 km/h (1 Bft) S 0.02 h 0.6 UV-I 83 W/m 7.0 C 7.8 C 8.0 km/h (2 Bft)
21.11.2006 11:00 8.2 C 92 % 1004.8 hPa 0.0 l/m 2.5 km/h (1 Bft) S 0.00 h 0.6 UV-I 55 W/m 7.0 C 8.1 C 5.6 km/h (1 Bft)
21.11.2006 12:00 8.6 C 92 % 1003.6 hPa 0.2 l/m 2.8 km/h (1 Bft) S-SW 0.00 h 0.6 UV-I 48 W/m 7.4 C 8.5 C 6.8 km/h (2 Bft)
21.11.2006 13:00 9.0 C 92 % 1002.5 hPa 0.4 l/m 6.1 km/h (2 Bft) SW 0.00 h 0.6 UV-I 61 W/m 7.8 C 8.3 C 13.1 km/h (3 Bft)
21.11.2006 14:00 9.1 C 91 % 1001.6 hPa 0.2 l/m 5.4 km/h (1 Bft) S-SW 0.00 h 0.5 UV-I 45 W/m 7.7 C 8.6 C 12.1 km/h (2 Bft)
21.11.2006 15:00 8.0 C 92 % 1001.9 hPa 1.6 l/m 12.5 km/h (3 Bft) W 0.00 h 0.0 UV-I 21 W/m 6.7 C 5.9 C 19.9 km/h (4 Bft)
21.11.2006 16:00 7.5 C 94 % 1002.1 hPa 0.4 l/m 6.2 km/h (2 Bft) W 0.08 h 0.0 UV-I 16 W/m 6.6 C 6.6 C 10.3 km/h (2 Bft)
21.11.2006 17:00 7.2 C 92 % 1001.6 hPa 0.0 l/m 1.6 km/h (1 Bft) SO 0.00 h 0.0 UV-I 0 W/m 6.0 C 7.1 C 3.2 km/h (1 Bft)
21.11.2006 18:00 6.9 C 95 % 1001.0 hPa 0.0 l/m 1.4 km/h (1 Bft) O-SO 0.00 h 0.0 UV-I 0 W/m 6.2 C 6.8 C 2.4 km/h (1 Bft)
21.11.2006 19:00 6.8 C 96 % 1000.8 hPa 3.4 l/m 3.9 km/h (1 Bft) W-SW 0.00 h 0.0 UV-I 0 W/m 6.3 C 6.2 C 6.7 km/h (2 Bft)
21.11.2006 20:00 6.3 C 92 % 1001.6 hPa 1.6 l/m 9.0 km/h (2 Bft) W 0.00 h 0.0 UV-I 0 W/m 5.1 C 4.5 C 15.3 km/h (3 Bft)
21.11.2006 21:00 5.9 C 93 % 1001.8 hPa 0.0 l/m 1.6 km/h (1 Bft) W-SW 0.00 h 0.0 UV-I 0 W/m 4.9 C 5.8 C 4.1 km/h (1 Bft)
21.11.2006 22:00 5.7 C 95 % 1001.7 hPa 0.0 l/m 1.5 km/h (1 Bft) SW 0.00 h 0.0 UV-I 0 W/m 5.0 C 5.7 C 3.4 km/h (1 Bft)
21.11.2006 23:00 5.8 C 95 % 1001.2 hPa 0.2 l/m 2.3 km/h (1 Bft) S-SO 0.00 h 0.0 UV-I 0 W/m 5.0 C 5.6 C 4.6 km/h (1 Bft)
22.11.2006 00:00 5.7 C 94 % 1001.1 hPa 0.0 l/m 1.8 km/h (1 Bft) O-SO 0.00 h 0.0 UV-I 0 W/m 4.9 C 5.5 C 3.1 km/h (1 Bft)
22.11.2006 01:00 5.2 C 95 % 1000.8 hPa 0.0 l/m 1.2 km/h (1 Bft) O-SO 0.00 h 0.0 UV-I 0 W/m 4.5 C 5.2 C 2.4 km/h (1 Bft)
22.11.2006 02:00 5.2 C 97 % 1000.8 hPa 0.4 l/m 5.0 km/h (1 Bft) W-NW 0.00 h 0.0 UV-I 0 W/m 4.7 C 4.4 C 8.2 km/h (2 Bft)
22.11.2006 03:00 4.8 C 92 % 1001.8 hPa 0.0 l/m 16.2 km/h (3 Bft) W 0.00 h 0.0 UV-I 0 W/m 3.5 C 1.4 C 24.9 km/h (4 Bft)
22.11.2006 04:00 4.8 C 91 % 1002.4 hPa 0.0 l/m 12.7 km/h (3 Bft) W 0.00 h 0.0 UV-I 0 W/m 3.4 C 1.9 C 20.0 km/h (4 Bft)
22.11.2006 05:00 5.0 C 91 % 1003.3 hPa 0.0 l/m 13.5 km/h (3 Bft) W 0.00 h 0.0 UV-I 0 W/m 3.6 C 2.0 C 21.7 km/h (4 Bft)
22.11.2006 06:00 5.1 C 85 % 1004.2 hPa 0.0 l/m 11.6 km/h (2 Bft) W 0.00 h 0.0 UV-I 0 W/m 2.7 C 2.5 C 18.4 km/h (3 Bft)
22.11.2006 07:00 4.6 C 83 % 1005.3 hPa 0.0 l/m 11.8 km/h (2 Bft) W 0.00 h 0.0 UV-I 5 W/m 2.0 C 1.9 C 19.3 km/h (3 Bft)
22.11.2006 08:00 4.5 C 83 % 1006.5 hPa 0.0 l/m 7.5 km/h (2 Bft) W 0.03 h 0.0 UV-I 39 W/m 1.8 C 2.8 C 12.4 km/h (3 Bft)
22.11.2006 09:00 4.9 C 80 % 1007.0 hPa 0.0 l/m 5.9 km/h (2 Bft) W 0.12 h 0.5 UV-I 81 W/m 1.8 C 3.8 C 10.5 km/h (2 Bft)
22.11.2006 10:00 5.1 C 78 % 1007.5 hPa 0.0 l/m 8.7 km/h (2 Bft) W 0.07 h 0.8 UV-I 101 W/m 1.6 C 3.2 C 14.6 km/h (3 Bft)
22.11.2006 11:00 5.9 C 72 % 1007.5 hPa 0.0 l/m 6.6 km/h (2 Bft) W 0.43 h 1.1 UV-I 234 W/m 1.3 C 4.8 C 10.5 km/h (2 Bft)
22.11.2006 12:00 6.5 C 66 % 1007.5 hPa 0.0 l/m 7.9 km/h (2 Bft) W-NW 0.27 h 1.1 UV-I 179 W/m 0.6 C 5.1 C 11.9 km/h (2 Bft)
22.11.2006 13:00 7.4 C 64 % 1007.5 hPa 0.0 l/m 5.8 km/h (2 Bft) W-NW 0.58 h 1.0 UV-I 261 W/m 1.0 C 6.6 C 10.0 km/h (2 Bft)
22.11.2006 14:00 7.1 C 64 % 1007.4 hPa 0.0 l/m 4.6 km/h (1 Bft) W 0.00 h 0.6 UV-I 100 W/m 0.8 C 6.6 C 7.9 km/h (2 Bft)
22.11.2006 15:00 7.1 C 65 % 1007.2 hPa 0.0 l/m 3.4 km/h (1 Bft) W-NW 0.37 h 0.5 UV-I 85 W/m 1.0 C 6.8 C 6.1 km/h (2 Bft)
22.11.2006 16:00 5.4 C 72 % 1006.9 hPa 0.0 l/m 0.6 km/h (0 Bft) W-NW 0.00 h 0.0 UV-I 15 W/m 0.8 C 5.4 C 1.3 km/h (1 Bft)
22.11.2006 17:00 3.6 C 82 % 1007.0 hPa 0.0 l/m 1.3 km/h (1 Bft) O-NO 0.00 h 0.0 UV-I 0 W/m 0.7 C 3.6 C 2.0 km/h (1 Bft)
22.11.2006 18:00 2.5 C 87 % 1007.1 hPa 0.0 l/m 2.4 km/h (1 Bft) O 0.00 h 0.0 UV-I 0 W/m 0.5 C 2.2 C 3.9 km/h (1 Bft)
22.11.2006 19:00 1.5 C 90 % 1007.3 hPa 0.0 l/m 0.5 km/h (0 Bft) O-SO 0.00 h 0.0 UV-I 0 W/m 0.1 C 1.5 C 0.9 km/h (0 Bft)
22.11.2006 20:00 1.0 C 92 % 1007.0 hPa 0.0 l/m 1.4 km/h (1 Bft) O 0.00 h 0.0 UV-I 0 W/m -0.2 C 1.0 C 2.7 km/h (1 Bft)
22.11.2006 21:00 1.0 C 93 % 1006.8 hPa 0.0 l/m 0.9 km/h (0 Bft) O 0.00 h 0.0 UV-I 0 W/m -0.0 C 0.9 C 1.6 km/h (1 Bft)
22.11.2006 22:00 1.2 C 93 % 1006.4 hPa 0.0 l/m 0.1 km/h (0 Bft) O-SO 0.00 h 0.0 UV-I 0 W/m 0.2 C 1.2 C 0.4 km/h (0 Bft)
22.11.2006 23:00 0.8 C 96 % 1006.1 hPa 0.0 l/m 0.2 km/h (0 Bft) O-SO 0.00 h 0.0 UV-I 0 W/m 0.2 C 0.8 C 0.7 km/h (0 Bft)
23.11.2006 00:00 1.3 C 97 % 1005.7 hPa 0.0 l/m 0.1 km/h (0 Bft) O-SO 0.00 h 0.0 UV-I 0 W/m 0.9 C 1.3 C 0.4 km/h (0 Bft)
23.11.2006 01:00 1.8 C 96 % 1005.3 hPa 0.0 l/m 0.3 km/h (0 Bft) O-SO 0.00 h 0.0 UV-I 0 W/m 1.3 C 1.8 C 1.2 km/h (1 Bft)
23.11.2006 02:00 1.9 C 95 % 1004.8 hPa 0.0 l/m 0.2 km/h (0 Bft) O-SO 0.00 h 0.0 UV-I 0 W/m 1.2 C 1.9 C 0.6 km/h (0 Bft)
23.11.2006 03:00 1.7 C 95 % 1004.3 hPa 0.0 l/m 0.1 km/h (0 Bft) O-SO 0.00 h 0.0 UV-I 0 W/m 1.0 C 1.7 C 0.7 km/h (0 Bft)
23.11.2006 04:00 2.0 C 95 % 1003.6 hPa 0.0 l/m 0.3 km/h (0 Bft) NO 0.00 h 0.0 UV-I 0 W/m 1.3 C 2.0 C 1.1 km/h (1 Bft)
23.11.2006 05:00 2.4 C 95 % 1003.5 hPa 0.0 l/m 0.1 km/h (0 Bft) N 0.00 h 0.0 UV-I 0 W/m 1.8 C 2.4 C 0.6 km/h (0 Bft)
23.11.2006 06:00 2.6 C 95 % 1003.6 hPa 0.0 l/m 0.5 km/h (0 Bft) N 0.00 h 0.0 UV-I 0 W/m 1.8 C 2.6 C 1.6 km/h (1 Bft)
23.11.2006 07:00 2.9 C 94 % 1003.9 hPa 0.0 l/m 0.3 km/h (0 Bft) N 0.00 h 0.0 UV-I 5 W/m 2.1 C 2.9 C 1.1 km/h (1 Bft)
23.11.2006 08:00 3.5 C 93 % 1004.0 hPa 0.0 l/m 0.3 km/h (0 Bft) N 0.00 h 0.0 UV-I 33 W/m 2.5 C 3.5 C 1.0 km/h (0 Bft)
23.11.2006 09:00 5.0 C 90 % 1003.8 hPa 0.0 l/m 0.2 km/h (0 Bft) N 0.12 h 0.6 UV-I 109 W/m 3.5 C 5.0 C 0.9 km/h (0 Bft)
23.11.2006 10:00 7.1 C 83 % 1003.3 hPa 0.2 l/m 1.4 km/h (1 Bft) SO 0.15 h 0.9 UV-I 145 W/m 4.5 C 7.1 C 3.8 km/h (1 Bft)
23.11.2006 11:00 9.5 C 74 % 1002.8 hPa 0.0 l/m 4.0 km/h (1 Bft) SW 0.12 h 1.1 UV-I 165 W/m 5.1 C 9.2 C 8.6 km/h (2 Bft)
23.11.2006 12:00 9.9 C 74 % 1002.4 hPa 0.0 l/m 2.1 km/h (1 Bft) SW 0.00 h 0.9 UV-I 104 W/m 5.6 C 9.9 C 4.7 km/h (1 Bft)
23.11.2006 13:00 10.7 C 73 % 1002.2 hPa 0.0 l/m 2.9 km/h (1 Bft) W-SW 0.48 h 1.2 UV-I 190 W/m 6.0 C 10.7 C 6.0 km/h (2 Bft)
23.11.2006 14:00 11.2 C 74 % 1002.1 hPa 0.0 l/m 1.7 km/h (1 Bft) S 0.23 h 0.8 UV-I 124 W/m 6.6 C 11.2 C 4.3 km/h (1 Bft)
23.11.2006 15:00 11.4 C 75 % 1002.0 hPa 0.0 l/m 3.0 km/h (1 Bft) SW 0.28 h 0.5 UV-I 68 W/m 7.0 C 11.4 C 6.8 km/h (2 Bft)
23.11.2006 16:00 11.4 C 77 % 1002.1 hPa 0.0 l/m 2.8 km/h (1 Bft) S 0.00 h 0.0 UV-I 13 W/m 7.4 C 11.4 C 6.5 km/h (2 Bft)
23.11.2006 17:00 11.4 C 77 % 1002.2 hPa 0.0 l/m 3.5 km/h (1 Bft) S 0.00 h 0.0 UV-I 0 W/m 7.6 C 11.4 C 7.8 km/h (2 Bft)
23.11.2006 18:00 10.8 C 80 % 1002.2 hPa 0.0 l/m 5.8 km/h (1 Bft) S-SO 0.00 h 0.0 UV-I 0 W/m 7.5 C 10.8 C 10.1 km/h (2 Bft)
23.11.2006 19:00 10.3 C 83 % 1002.5 hPa 0.0 l/m 5.2 km/h (1 Bft) S-SO 0.00 h 0.0 UV-I 0 W/m 7.5 C 10.1 C 9.6 km/h (2 Bft)
23.11.2006 20:00 9.4 C 84 % 1002.8 hPa 0.0 l/m 2.5 km/h (1 Bft) S-SO 0.00 h 0.0 UV-I 0 W/m 6.7 C 9.2 C 5.3 km/h (1 Bft)
23.11.2006 21:00 9.3 C 83 % 1003.4 hPa 0.0 l/m 2.6 km/h (1 Bft) S-SO 0.00 h 0.0 UV-I 0 W/m 6.6 C 9.2 C 5.4 km/h (1 Bft)
23.11.2006 22:00 9.9 C 83 % 1003.7 hPa 0.0 l/m 3.9 km/h (1 Bft) SW 0.00 h 0.0 UV-I 0 W/m 7.2 C 9.7 C 9.3 km/h (2 Bft)
23.11.2006 23:00 9.8 C 82 % 1004.2 hPa 0.0 l/m 2.1 km/h (1 Bft) W-SW 0.00 h 0.0 UV-I 0 W/m 6.9 C 9.8 C 4.9 km/h (1 Bft)
24.11.2006 00:00 9.5 C 84 % 1005.1 hPa 0.0 l/m 1.2 km/h (1 Bft) N 0.00 h 0.0 UV-I 0 W/m 6.9 C 9.5 C 2.8 km/h (1 Bft)
24.11.2006 01:00 8.5 C 90 % 1005.9 hPa 0.4 l/m 1.2 km/h (1 Bft) NO 0.00 h 0.0 UV-I 0 W/m 7.0 C 8.5 C 2.4 km/h (1 Bft)
24.11.2006 02:00 8.5 C 94 % 1006.7 hPa 0.6 l/m 0.8 km/h (0 Bft) O-SO 0.00 h 0.0 UV-I 0 W/m 7.5 C 8.5 C 1.8 km/h (1 Bft)
24.11.2006 03:00 8.8 C 96 % 1006.8 hPa 0.0 l/m 0.8 km/h (0 Bft) S-SO 0.00 h 0.0 UV-I 0 W/m 8.2 C 8.8 C 2.0 km/h (1 Bft)
24.11.2006 04:00 8.5 C 95 % 1006.2 hPa 0.0 l/m 0.5 km/h (0 Bft) S-SO 0.00 h 0.0 UV-I 0 W/m 7.8 C 8.5 C 1.5 km/h (1 Bft)
24.11.2006 05:00 7.8 C 96 % 1006.6 hPa 0.0 l/m 1.4 km/h (1 Bft) O-SO 0.00 h 0.0 UV-I 0 W/m 7.2 C 7.8 C 2.3 km/h (1 Bft)
24.11.2006 06:00 7.1 C 97 % 1006.8 hPa 0.0 l/m 1.3 km/h (1 Bft) O-SO 0.00 h 0.0 UV-I 0 W/m 6.5 C 7.0 C 2.1 km/h (1 Bft)
24.11.2006 07:00 6.6 C 97 % 1007.3 hPa 0.0 l/m 0.1 km/h (0 Bft) O-SO 0.00 h 0.0 UV-I 6 W/m 6.2 C 6.6 C 0.2 km/h (0 Bft)
24.11.2006 08:00 6.5 C 98 % 1007.7 hPa 0.0 l/m 0.3 km/h (0 Bft) O-SO 0.00 h 0.0 UV-I 25 W/m 6.3 C 6.5 C 0.9 km/h (0 Bft)
24.11.2006 09:00 6.8 C 99 % 1008.2 hPa 0.0 l/m 0.6 km/h (0 Bft) SO 0.07 h 0.5 UV-I 73 W/m 6.7 C 6.8 C 1.4 km/h (1 Bft)
24.11.2006 10:00 7.5 C 100 % 1008.3 hPa 0.0 l/m 1.4 km/h (1 Bft) N-NW 0.18 h 0.8 UV-I 147 W/m 7.5 C 7.4 C 2.9 km/h (1 Bft)
24.11.2006 11:00 8.0 C 100 % 1007.6 hPa 0.0 l/m 1.2 km/h (1 Bft) N-NW 0.00 h 1.0 UV-I 123 W/m 8.0 C 8.0 C 2.7 km/h (1 Bft)
24.11.2006 12:00 9.4 C 100 % 1006.6 hPa 0.0 l/m 0.5 km/h (0 Bft) NW 0.23 h 1.2 UV-I 181 W/m 9.4 C 9.4 C 1.6 km/h (1 Bft)
24.11.2006 13:00 11.5 C 91 % 1005.7 hPa 0.0 l/m 0.5 km/h (0 Bft) NW 0.08 h 1.0 UV-I 148 W/m 10.1 C 11.5 C 1.6 km/h (1 Bft)
24.11.2006 14:00 12.2 C 88 % 1005.2 hPa 0.0 l/m 0.1 km/h (0 Bft) S-SO 0.18 h 0.7 UV-I 134 W/m 10.2 C 12.2 C 0.5 km/h (0 Bft)
24.11.2006 15:00 12.2 C 88 % 1005.1 hPa 0.0 l/m 0.2 km/h (0 Bft) S-SO 0.02 h 0.5 UV-I 57 W/m 10.2 C 12.2 C 0.7 km/h (0 Bft)
24.11.2006 16:00 11.5 C 89 % 1005.3 hPa 0.0 l/m 2.3 km/h (1 Bft) S-SO 0.00 h 0.0 UV-I 20 W/m 9.7 C 11.5 C 4.0 km/h (1 Bft)
24.11.2006 17:00 10.4 C 91 % 1005.0 hPa 0.0 l/m 1.4 km/h (1 Bft) O-SO 0.00 h 0.0 UV-I 0 W/m 9.0 C 10.4 C 1.9 km/h (1 Bft)
24.11.2006 18:00 9.5 C 95 % 1005.0 hPa 0.0 l/m 1.6 km/h (1 Bft) O-SO 0.00 h 0.0 UV-I 0 W/m 8.7 C 9.5 C 2.5 km/h (1 Bft)
24.11.2006 19:00 8.8 C 94 % 1005.1 hPa 0.0 l/m 2.6 km/h (1 Bft) O 0.00 h 0.0 UV-I 0 W/m 7.9 C 8.6 C 4.1 km/h (1 Bft)
24.11.2006 20:00 8.0 C 97 % 1005.6 hPa 0.0 l/m 1.2 km/h (1 Bft) O 0.00 h 0.0 UV-I 0 W/m 7.6 C 8.0 C 2.0 km/h (1 Bft)
24.11.2006 21:00 7.4 C 96 % 1005.7 hPa 0.0 l/m 1.8 km/h (1 Bft) O-SO 0.00 h 0.0 UV-I 0 W/m 6.9 C 7.3 C 3.0 km/h (1 Bft)
24.11.2006 22:00 7.0 C 97 % 1006.0 hPa 0.0 l/m 3.1 km/h (1 Bft) O-SO 0.00 h 0.0 UV-I 0 W/m 6.5 C 6.6 C 4.5 km/h (1 Bft)
24.11.2006 23:00 6.7 C 97 % 1006.0 hPa 0.0 l/m 2.2 km/h (1 Bft) SO 0.00 h 0.0 UV-I 0 W/m 6.2 C 6.5 C 3.6 km/h (1 Bft)
25.11.2006 00:00 6.4 C 97 % 1005.9 hPa 0.0 l/m 0.4 km/h (0 Bft) O-SO 0.00 h 0.0 UV-I 0 W/m 5.9 C 6.4 C 1.1 km/h (0 Bft)
25.11.2006 01:00 6.1 C 97 % 1005.6 hPa 0.0 l/m 0.7 km/h (0 Bft) O-SO 0.00 h 0.0 UV-I 0 W/m 5.7 C 6.0 C 1.5 km/h (1 Bft)
25.11.2006 02:00 6.1 C 98 % 1005.7 hPa 0.0 l/m 0.7 km/h (0 Bft) O-SO 0.00 h 0.0 UV-I 0 W/m 5.8 C 6.1 C 1.2 km/h (1 Bft)
25.11.2006 03:00 6.1 C 99 % 1005.6 hPa 0.0 l/m 0.3 km/h (0 Bft) O-SO 0.00 h 0.0 UV-I 0 W/m 5.9 C 6.1 C 0.8 km/h (0 Bft)
25.11.2006 04:00 6.1 C 99 % 1005.2 hPa 0.0 l/m 0.3 km/h (0 Bft) O-SO 0.00 h 0.0 UV-I 0 W/m 5.9 C 6.1 C 0.8 km/h (0 Bft)
25.11.2006 05:00 6.0 C 99 % 1005.8 hPa 0.0 l/m 0.5 km/h (0 Bft) O-SO 0.00 h 0.0 UV-I 0 W/m 5.9 C 6.0 C 1.6 km/h (1 Bft)
25.11.2006 06:00 5.7 C 99 % 1006.5 hPa 0.0 l/m 1.1 km/h (1 Bft) O-SO 0.00 h 0.0 UV-I 0 W/m 5.6 C 5.7 C 2.4 km/h (1 Bft)
25.11.2006 07:00 6.1 C 100 % 1007.5 hPa 0.2 l/m 4.1 km/h (1 Bft) O-SO 0.00 h 0.0 UV-I 5 W/m 6.1 C 5.7 C 6.3 km/h (2 Bft)
25.11.2006 08:00 6.3 C 100 % 1008.3 hPa 0.0 l/m 4.9 km/h (1 Bft) O-SO 0.00 h 0.0 UV-I 25 W/m 6.3 C 5.7 C 7.4 km/h (2 Bft)
25.11.2006 09:00 6.8 C 100 % 1009.1 hPa 0.0 l/m 2.8 km/h (1 Bft) O-SO 0.00 h 0.6 UV-I 57 W/m 6.8 C 6.5 C 4.6 km/h (1 Bft)
25.11.2006 10:00 7.6 C 99 % 1009.0 hPa 0.0 l/m 0.5 km/h (0 Bft) O 0.03 h 0.9 UV-I 119 W/m 7.5 C 7.6 C 1.5 km/h (1 Bft)
25.11.2006 11:00 9.2 C 94 % 1009.3 hPa 0.0 l/m 0.9 km/h (0 Bft) O-SO 0.78 h 1.2 UV-I 223 W/m 8.3 C 9.2 C 2.3 km/h (1 Bft)
25.11.2006 12:00 10.8 C 88 % 1009.2 hPa 0.0 l/m 0.4 km/h (0 Bft) W 0.50 h 1.3 UV-I 225 W/m 8.9 C 10.8 C 1.6 km/h (1 Bft)
25.11.2006 13:00 12.2 C 83 % 1009.5 hPa 0.0 l/m 1.3 km/h (1 Bft) S 0.65 h 1.2 UV-I 218 W/m 9.3 C 12.2 C 3.2 km/h (1 Bft)
25.11.2006 14:00 13.1 C 77 % 1009.9 hPa 0.0 l/m 3.1 km/h (1 Bft) SO 0.25 h 0.8 UV-I 135 W/m 9.1 C 13.1 C 5.4 km/h (1 Bft)
25.11.2006 15:00 12.8 C 78 % 1010.5 hPa 0.0 l/m 2.0 km/h (1 Bft) SO 0.00 h 0.5 UV-I 62 W/m 9.1 C 12.8 C 3.6 km/h (1 Bft)
25.11.2006 16:00 12.5 C 78 % 1011.3 hPa 0.0 l/m 2.0 km/h (1 Bft) SO 0.00 h 0.0 UV-I 17 W/m 8.7 C 12.5 C 4.0 km/h (1 Bft)
25.11.2006 17:00 11.0 C 85 % 1012.3 hPa 0.0 l/m 1.0 km/h (0 Bft) O-SO 0.00 h 0.0 UV-I 0 W/m 8.5 C 11.0 C 2.1 km/h (1 Bft)
25.11.2006 18:00 9.9 C 91 % 1013.3 hPa 0.0 l/m 0.5 km/h (0 Bft) O-NO 0.00 h 0.0 UV-I 0 W/m 8.4 C 9.9 C 1.1 km/h (1 Bft)
25.11.2006 19:00 9.5 C 92 % 1013.9 hPa 0.0 l/m 0.6 km/h (0 Bft) O 0.00 h 0.0 UV-I 0 W/m 8.3 C 9.5 C 1.1 km/h (0 Bft)
25.11.2006 20:00 9.1 C 94 % 1014.3 hPa 0.0 l/m 0.9 km/h (0 Bft) O 0.00 h 0.0 UV-I 0 W/m 8.2 C 9.1 C 1.4 km/h (1 Bft)
25.11.2006 21:00 9.1 C 96 % 1014.9 hPa 0.0 l/m 2.0 km/h (1 Bft) SO 0.00 h 0.0 UV-I 0 W/m 8.4 C 9.0 C 3.7 km/h (1 Bft)
25.11.2006 22:00 9.2 C 95 % 1015.8 hPa 0.0 l/m 3.7 km/h (1 Bft) O-SO 0.00 h 0.0 UV-I 0 W/m 8.4 C 8.8 C 5.5 km/h (1 Bft)
25.11.2006 23:00 9.0 C 95 % 1016.0 hPa 0.0 l/m 0.4 km/h (0 Bft) O-SO 0.00 h 0.0 UV-I 0 W/m 8.3 C 9.0 C 0.8 km/h (0 Bft)
26.11.2006 00:00 8.5 C 97 % 1016.9 hPa 0.0 l/m 2.1 km/h (1 Bft) O 0.00 h 0.0 UV-I 0 W/m 8.0 C 8.4 C 3.1 km/h (1 Bft)
26.11.2006 01:00 8.1 C 97 % 1017.4 hPa 0.0 l/m 2.3 km/h (1 Bft) O-SO 0.00 h 0.0 UV-I 0 W/m 7.7 C 8.0 C 4.0 km/h (1 Bft)
26.11.2006 02:00 7.7 C 95 % 1018.0 hPa 0.0 l/m 0.3 km/h (0 Bft) O-NO 0.00 h 0.0 UV-I 0 W/m 7.0 C 7.7 C 1.0 km/h (0 Bft)
26.11.2006 03:00 6.7 C 96 % 1018.4 hPa 0.0 l/m 0.7 km/h (0 Bft) O 0.00 h 0.0 UV-I 0 W/m 6.1 C 6.7 C 1.4 km/h (1 Bft)
26.11.2006 04:00 6.1 C 97 % 1018.7 hPa 0.0 l/m 0.6 km/h (0 Bft) O 0.00 h 0.0 UV-I 0 W/m 5.7 C 6.1 C 1.3 km/h (1 Bft)
26.11.2006 05:00 6.1 C 98 % 1018.8 hPa 0.0 l/m 0.5 km/h (0 Bft) O 0.00 h 0.0 UV-I 0 W/m 5.8 C 6.1 C 1.0 km/h (0 Bft)
26.11.2006 06:00 5.9 C 99 % 1019.1 hPa 0.0 l/m 1.1 km/h (1 Bft) O 0.00 h 0.0 UV-I 0 W/m 5.7 C 5.9 C 2.3 km/h (1 Bft)
26.11.2006 07:00 5.7 C 99 % 1019.7 hPa 0.0 l/m 1.6 km/h (1 Bft) O 0.00 h 0.0 UV-I 6 W/m 5.6 C 5.7 C 3.0 km/h (1 Bft)
26.11.2006 08:00 5.5 C 100 % 1020.5 hPa 0.0 l/m 1.7 km/h (1 Bft) O 0.00 h 0.0 UV-I 29 W/m 5.5 C 5.4 C 3.5 km/h (1 Bft)
26.11.2006 09:00 5.8 C 100 % 1021.1 hPa 0.0 l/m 1.9 km/h (1 Bft) O 0.00 h 0.0 UV-I 32 W/m 5.8 C 5.6 C 3.9 km/h (1 Bft)
26.11.2006 10:00 6.3 C 100 % 1021.9 hPa 0.0 l/m 0.2 km/h (0 Bft) O 0.00 h 0.7 UV-I 51 W/m 6.3 C 6.3 C 0.8 km/h (0 Bft)
26.11.2006 11:00 7.6 C 100 % 1022.1 hPa 0.0 l/m 0.2 km/h (0 Bft) NO 0.02 h 0.9 UV-I 148 W/m 7.6 C 7.6 C 0.9 km/h (0 Bft)
26.11.2006 12:00 8.4 C 100 % 1021.6 hPa 0.0 l/m 0.7 km/h (0 Bft) W-NW 0.17 h 1.1 UV-I 175 W/m 8.4 C 8.4 C 1.7 km/h (1 Bft)
26.11.2006 13:00 10.1 C 97 % 1021.5 hPa 0.0 l/m 0.9 km/h (0 Bft) W-NW 0.93 h 1.1 UV-I 250 W/m 9.7 C 10.1 C 2.4 km/h (1 Bft)
26.11.2006 14:00 12.0 C 86 % 1021.5 hPa 0.0 l/m 2.3 km/h (1 Bft) O-SO 0.60 h 0.8 UV-I 157 W/m 9.8 C 12.0 C 3.6 km/h (1 Bft)
26.11.2006 15:00 12.2 C 87 % 1021.7 hPa 0.0 l/m 0.9 km/h (0 Bft) N-NO 0.00 h 0.5 UV-I 55 W/m 10.0 C 12.2 C 2.0 km/h (1 Bft)
26.11.2006 16:00 10.6 C 92 % 1022.3 hPa 0.0 l/m 0.6 km/h (0 Bft) O-SO 0.02 h 0.0 UV-I 14 W/m 9.3 C 10.6 C 1.0 km/h (0 Bft)
26.11.2006 17:00 9.1 C 95 % 1023.0 hPa 0.0 l/m 1.4 km/h (1 Bft) O-SO 0.00 h 0.0 UV-I 0 W/m 8.4 C 9.1 C 2.3 km/h (1 Bft)
26.11.2006 18:00 8.2 C 96 % 1023.6 hPa 0.0 l/m 1.0 km/h (0 Bft) O-SO 0.00 h 0.0 UV-I 0 W/m 7.5 C 8.2 C 1.7 km/h (1 Bft)
26.11.2006 19:00 7.3 C 97 % 1024.1 hPa 0.0 l/m 1.8 km/h (1 Bft) O-SO 0.00 h 0.0 UV-I 0 W/m 6.8 C 7.2 C 2.9 km/h (1 Bft)
26.11.2006 20:00 6.6 C 98 % 1024.4 hPa 0.0 l/m 0.6 km/h (0 Bft) O 0.00 h 0.0 UV-I 0 W/m 6.2 C 6.6 C 1.1 km/h (1 Bft)
26.11.2006 21:00 6.5 C 99 % 1024.6 hPa 0.0 l/m 1.6 km/h (1 Bft) O-SO 0.00 h 0.0 UV-I 0 W/m 6.4 C 6.5 C 2.6 km/h (1 Bft)
26.11.2006 22:00 5.8 C 99 % 1024.9 hPa 0.0 l/m 0.5 km/h (0 Bft) O-SO 0.00 h 0.0 UV-I 0 W/m 5.7 C 5.8 C 1.2 km/h (1 Bft)
26.11.2006 23:00 5.6 C 100 % 1025.2 hPa 0.2 l/m 1.4 km/h (1 Bft) O-SO 0.00 h 0.0 UV-I 0 W/m 5.6 C 5.6 C 2.2 km/h (1 Bft)
Min-Datum _ 22.11.06 22.11.06 21.11.06 - 20.11.06 - - - - 22.11.06 22.11.06 20.11.06
_ Min-Zeit 23:46 13:17 19:15 - 00:31 - - - - 20:50 21:20 00:40
Minimum _ 0.6 C 60 % 1000.5 hPa - 0.0 km/h (0 Bft) - - - - -0.4 C -0.7 C 0.0 km/h (0 Bft)
Max-Datum _ 25.11.06 21.11.06 26.11.06 21.11.06 21.11.06 - 20.11.06 20.11.06 22.11.06 24.11.06 25.11.06 21.11.06
_ Max-Zeit 14:20 08:50 23:45 19:03 15:03 - 10:42 11:53 11:40 13:09 14:20 15:03
Maximum _ 13.3 C 100 % 1025.3 hPa 3.4 l/m 30.1 km/h
W (5 Bft)
- 0.02 h 1.4 UV-I 446 W/m 10.9 C 13.3 C 43.3 km/h
W (6 Bft)
Durchschnitt _ 7.1 C 90 % 1010.2 hPa #14.0 l/m 2.5 km/h (1 Bft) O-SO #11:55 h 0.8 UV-I 97 W/m 5.5 C 6.9 C 4.8 km/h (1 Bft)
© Kaiko 2006